sensor_id;sensor_type;location;lat;lon;timestamp;P1;durP1;ratioP1;P2;durP2;ratioP2
11269;SDS011;5692;48.956;9.200;2024-01-27T00:00:33;255.15;;;242.95;;
11269;SDS011;5692;48.956;9.200;2024-01-27T00:02:59;256.58;;;244.27;;
11269;SDS011;5692;48.956;9.200;2024-01-27T00:05:27;261.80;;;249.27;;
11269;SDS011;5692;48.956;9.200;2024-01-27T00:07:53;257.70;;;245.40;;
11269;SDS011;5692;48.956;9.200;2024-01-27T00:10:19;262.75;;;250.18;;
11269;SDS011;5692;48.956;9.200;2024-01-27T00:12:45;243.82;;;232.13;;
11269;SDS011;5692;48.956;9.200;2024-01-27T00:15:14;246.32;;;234.52;;
11269;SDS011;5692;48.956;9.200;2024-01-27T00:17:40;265.55;;;252.85;;
11269;SDS011;5692;48.956;9.200;2024-01-27T00:20:09;268.15;;;255.32;;
11269;SDS011;5692;48.956;9.200;2024-01-27T00:22:35;280.13;;;266.73;;
11269;SDS011;5692;48.956;9.200;2024-01-27T00:25:04;271.02;;;258.08;;
11269;SDS011;5692;48.956;9.200;2024-01-27T00:27:37;279.27;;;265.92;;
11269;SDS011;5692;48.956;9.200;2024-01-27T00:30:03;255.98;;;243.73;;
11269;SDS011;5692;48.956;9.200;2024-01-27T00:32:29;271.27;;;258.27;;
11269;SDS011;5692;48.956;9.200;2024-01-27T00:34:56;282.02;;;268.52;;
11269;SDS011;5692;48.956;9.200;2024-01-27T00:37:22;276.67;;;263.48;;
11269;SDS011;5692;48.956;9.200;2024-01-27T00:39:48;279.00;;;265.67;;
11269;SDS011;5692;48.956;9.200;2024-01-27T00:42:14;268.77;;;255.93;;
11269;SDS011;5692;48.956;9.200;2024-01-27T00:44:41;268.67;;;255.88;;
11269;SDS011;5692;48.956;9.200;2024-01-27T00:47:07;261.52;;;249.02;;
11269;SDS011;5692;48.956;9.200;2024-01-27T00:49:36;257.90;;;245.57;;
11269;SDS011;5692;48.956;9.200;2024-01-27T00:52:02;261.10;;;248.60;;
11269;SDS011;5692;48.956;9.200;2024-01-27T00:54:28;263.63;;;251.02;;
11269;SDS011;5692;48.956;9.200;2024-01-27T00:56:56;247.77;;;235.93;;
11269;SDS011;5692;48.956;9.200;2024-01-27T00:59:22;265.45;;;252.75;;
11269;SDS011;5692;48.956;9.200;2024-01-27T01:01:57;252.98;;;240.88;;
11269;SDS011;5692;48.956;9.200;2024-01-27T01:04:23;253.45;;;241.32;;
11269;SDS011;5692;48.956;9.200;2024-01-27T01:06:49;262.02;;;249.50;;
11269;SDS011;5692;48.956;9.200;2024-01-27T01:09:15;251.20;;;239.18;;
11269;SDS011;5692;48.956;9.200;2024-01-27T01:11:43;241.40;;;229.85;;
11269;SDS011;5692;48.956;9.200;2024-01-27T01:14:09;240.10;;;228.63;;
11269;SDS011;5692;48.956;9.200;2024-01-27T01:16:35;238.40;;;227.00;;
11269;SDS011;5692;48.956;9.200;2024-01-27T01:19:01;231.95;;;220.85;;
11269;SDS011;5692;48.956;9.200;2024-01-27T01:21:27;230.45;;;219.45;;
11269;SDS011;5692;48.956;9.200;2024-01-27T01:23:53;235.57;;;224.30;;
11269;SDS011;5692;48.956;9.200;2024-01-27T01:26:19;229.57;;;218.57;;
11269;SDS011;5692;48.956;9.200;2024-01-27T01:28:45;223.27;;;212.57;;
11269;SDS011;5692;48.956;9.200;2024-01-27T01:31:11;229.60;;;218.63;;
11269;SDS011;5692;48.956;9.200;2024-01-27T01:33:37;236.85;;;225.52;;
11269;SDS011;5692;48.956;9.200;2024-01-27T01:36:04;220.32;;;209.77;;
11269;SDS011;5692;48.956;9.200;2024-01-27T01:38:30;227.07;;;216.23;;
11269;SDS011;5692;48.956;9.200;2024-01-27T01:40:56;223.45;;;212.75;;
11269;SDS011;5692;48.956;9.200;2024-01-27T01:43:22;227.07;;;216.18;;
11269;SDS011;5692;48.956;9.200;2024-01-27T01:45:48;239.23;;;227.77;;
11269;SDS011;5692;48.956;9.200;2024-01-27T01:48:15;237.55;;;226.18;;
11269;SDS011;5692;48.956;9.200;2024-01-27T01:50:41;227.40;;;216.50;;
11269;SDS011;5692;48.956;9.200;2024-01-27T01:53:10;237.55;;;226.15;;
11269;SDS011;5692;48.956;9.200;2024-01-27T01:55:36;240.95;;;229.45;;
11269;SDS011;5692;48.956;9.200;2024-01-27T01:58:02;245.68;;;233.93;;
11269;SDS011;5692;48.956;9.200;2024-01-27T02:00:29;245.10;;;233.38;;
11269;SDS011;5692;48.956;9.200;2024-01-27T02:02:55;238.20;;;226.80;;
11269;SDS011;5692;48.956;9.200;2024-01-27T02:05:24;232.35;;;221.25;;
11269;SDS011;5692;48.956;9.200;2024-01-27T02:07:52;228.85;;;217.90;;
11269;SDS011;5692;48.956;9.200;2024-01-27T02:10:21;227.13;;;216.23;;
11269;SDS011;5692;48.956;9.200;2024-01-27T02:13:01;234.00;;;222.80;;
11269;SDS011;5692;48.956;9.200;2024-01-27T02:15:33;232.07;;;220.98;;
11269;SDS011;5692;48.956;9.200;2024-01-27T02:17:59;233.20;;;222.05;;
11269;SDS011;5692;48.956;9.200;2024-01-27T02:20:27;237.43;;;226.07;;
11269;SDS011;5692;48.956;9.200;2024-01-27T02:22:53;232.10;;;221.00;;
11269;SDS011;5692;48.956;9.200;2024-01-27T02:25:19;220.13;;;209.60;;
11269;SDS011;5692;48.956;9.200;2024-01-27T02:27:45;211.02;;;200.93;;
11269;SDS011;5692;48.956;9.200;2024-01-27T02:30:18;212.00;;;201.85;;
11269;SDS011;5692;48.956;9.200;2024-01-27T02:32:46;213.23;;;203.02;;
11269;SDS011;5692;48.956;9.200;2024-01-27T02:35:12;227.07;;;216.23;;
11269;SDS011;5692;48.956;9.200;2024-01-27T02:37:39;225.55;;;214.77;;
11269;SDS011;5692;48.956;9.200;2024-01-27T02:40:10;230.55;;;219.52;;
11269;SDS011;5692;48.956;9.200;2024-01-27T02:42:36;219.32;;;208.82;;
11269;SDS011;5692;48.956;9.200;2024-01-27T02:45:07;221.48;;;210.88;;
11269;SDS011;5692;48.956;9.200;2024-01-27T02:47:33;219.55;;;209.05;;
11269;SDS011;5692;48.956;9.200;2024-01-27T02:49:59;218.70;;;208.20;;
11269;SDS011;5692;48.956;9.200;2024-01-27T02:52:25;214.38;;;204.10;;
11269;SDS011;5692;48.956;9.200;2024-01-27T02:54:52;227.23;;;216.35;;
11269;SDS011;5692;48.956;9.200;2024-01-27T02:57:18;219.88;;;209.38;;
11269;SDS011;5692;48.956;9.200;2024-01-27T02:59:48;215.48;;;205.18;;
11269;SDS011;5692;48.956;9.200;2024-01-27T03:02:14;214.70;;;204.43;;
11269;SDS011;5692;48.956;9.200;2024-01-27T03:04:41;210.95;;;200.85;;
11269;SDS011;5692;48.956;9.200;2024-01-27T03:07:07;215.95;;;205.60;;
11269;SDS011;5692;48.956;9.200;2024-01-27T03:09:33;215.30;;;205.00;;
11269;SDS011;5692;48.956;9.200;2024-01-27T03:11:59;215.88;;;205.57;;
11269;SDS011;5692;48.956;9.200;2024-01-27T03:14:25;213.38;;;203.18;;
11269;SDS011;5692;48.956;9.200;2024-01-27T03:16:54;221.13;;;210.52;;
11269;SDS011;5692;48.956;9.200;2024-01-27T03:19:20;235.80;;;224.50;;
11269;SDS011;5692;48.956;9.200;2024-01-27T03:21:47;237.45;;;226.07;;
11269;SDS011;5692;48.956;9.200;2024-01-27T03:24:13;219.02;;;208.52;;
11269;SDS011;5692;48.956;9.200;2024-01-27T03:26:39;218.48;;;208.02;;
11269;SDS011;5692;48.956;9.200;2024-01-27T03:29:05;228.30;;;217.38;;
11269;SDS011;5692;48.956;9.200;2024-01-27T03:31:33;224.15;;;213.43;;
11269;SDS011;5692;48.956;9.200;2024-01-27T03:34:00;234.48;;;223.27;;
11269;SDS011;5692;48.956;9.200;2024-01-27T03:36:33;225.85;;;215.05;;
11269;SDS011;5692;48.956;9.200;2024-01-27T03:38:59;216.57;;;206.18;;
11269;SDS011;5692;48.956;9.200;2024-01-27T03:41:25;213.02;;;202.82;;
11269;SDS011;5692;48.956;9.200;2024-01-27T03:43:52;223.15;;;212.48;;
11269;SDS011;5692;48.956;9.200;2024-01-27T03:46:20;216.95;;;206.57;;
11269;SDS011;5692;48.956;9.200;2024-01-27T03:48:46;219.40;;;208.90;;
11269;SDS011;5692;48.956;9.200;2024-01-27T03:51:12;222.07;;;211.45;;
11269;SDS011;5692;48.956;9.200;2024-01-27T03:53:38;221.02;;;210.48;;
11269;SDS011;5692;48.956;9.200;2024-01-27T03:56:10;217.70;;;207.27;;
11269;SDS011;5692;48.956;9.200;2024-01-27T03:58:36;228.75;;;217.80;;
11269;SDS011;5692;48.956;9.200;2024-01-27T04:01:05;212.50;;;202.35;;
11269;SDS011;5692;48.956;9.200;2024-01-27T04:03:31;222.02;;;211.40;;
11269;SDS011;5692;48.956;9.200;2024-01-27T04:06:00;216.23;;;205.90;;
11269;SDS011;5692;48.956;9.200;2024-01-27T04:08:28;207.02;;;197.10;;
11269;SDS011;5692;48.956;9.200;2024-01-27T04:10:54;207.57;;;197.65;;
11269;SDS011;5692;48.956;9.200;2024-01-27T04:13:22;203.30;;;193.57;;
11269;SDS011;5692;48.956;9.200;2024-01-27T04:15:48;202.20;;;192.52;;
11269;SDS011;5692;48.956;9.200;2024-01-27T04:18:16;207.63;;;197.70;;
11269;SDS011;5692;48.956;9.200;2024-01-27T04:20:42;200.43;;;190.82;;
11269;SDS011;5692;48.956;9.200;2024-01-27T04:23:08;218.90;;;208.43;;
11269;SDS011;5692;48.956;9.200;2024-01-27T04:25:34;209.23;;;199.23;;
11269;SDS011;5692;48.956;9.200;2024-01-27T04:28:00;214.63;;;204.32;;
11269;SDS011;5692;48.956;9.200;2024-01-27T04:30:26;216.18;;;205.85;;
11269;SDS011;5692;48.956;9.200;2024-01-27T04:32:52;221.48;;;210.88;;
11269;SDS011;5692;48.956;9.200;2024-01-27T04:35:18;201.18;;;191.57;;
11269;SDS011;5692;48.956;9.200;2024-01-27T04:37:44;217.95;;;207.52;;
11269;SDS011;5692;48.956;9.200;2024-01-27T04:40:11;209.02;;;199.02;;
11269;SDS011;5692;48.956;9.200;2024-01-27T04:42:40;214.65;;;204.35;;
11269;SDS011;5692;48.956;9.200;2024-01-27T04:45:07;210.45;;;200.38;;
11269;SDS011;5692;48.956;9.200;2024-01-27T04:47:33;210.45;;;200.35;;
11269;SDS011;5692;48.956;9.200;2024-01-27T04:49:59;206.90;;;197.00;;
11269;SDS011;5692;48.956;9.200;2024-01-27T04:52:25;211.85;;;201.70;;
11269;SDS011;5692;48.956;9.200;2024-01-27T04:54:51;205.55;;;195.70;;
11269;SDS011;5692;48.956;9.200;2024-01-27T04:57:17;217.13;;;206.73;;
11269;SDS011;5692;48.956;9.200;2024-01-27T04:59:46;209.95;;;199.93;;
11269;SDS011;5692;48.956;9.200;2024-01-27T05:02:12;207.05;;;197.15;;
11269;SDS011;5692;48.956;9.200;2024-01-27T05:04:38;196.25;;;186.85;;
11269;SDS011;5692;48.956;9.200;2024-01-27T05:07:07;193.85;;;184.55;;
11269;SDS011;5692;48.956;9.200;2024-01-27T05:09:33;202.02;;;192.35;;
11269;SDS011;5692;48.956;9.200;2024-01-27T05:12:00;202.13;;;192.45;;
11269;SDS011;5692;48.956;9.200;2024-01-27T05:14:28;210.30;;;200.20;;
11269;SDS011;5692;48.956;9.200;2024-01-27T05:16:54;197.90;;;188.43;;
11269;SDS011;5692;48.956;9.200;2024-01-27T05:19:20;208.10;;;198.13;;
11269;SDS011;5692;48.956;9.200;2024-01-27T05:21:46;206.10;;;196.20;;
11269;SDS011;5692;48.956;9.200;2024-01-27T05:24:12;206.52;;;196.63;;
11269;SDS011;5692;48.956;9.200;2024-01-27T05:26:38;210.43;;;200.32;;
11269;SDS011;5692;48.956;9.200;2024-01-27T05:29:05;218.80;;;208.30;;
11269;SDS011;5692;48.956;9.200;2024-01-27T05:31:33;211.43;;;201.32;;
11269;SDS011;5692;48.956;9.200;2024-01-27T05:33:59;208.23;;;198.25;;
11269;SDS011;5692;48.956;9.200;2024-01-27T05:36:28;207.38;;;197.45;;
11269;SDS011;5692;48.956;9.200;2024-01-27T05:38:57;217.63;;;207.20;;
11269;SDS011;5692;48.956;9.200;2024-01-27T05:41:28;209.05;;;199.05;;
11269;SDS011;5692;48.956;9.200;2024-01-27T05:43:54;197.00;;;187.60;;
11269;SDS011;5692;48.956;9.200;2024-01-27T05:46:22;200.05;;;190.45;;
11269;SDS011;5692;48.956;9.200;2024-01-27T05:48:58;203.07;;;193.38;;
11269;SDS011;5692;48.956;9.200;2024-01-27T05:51:28;211.15;;;201.05;;
11269;SDS011;5692;48.956;9.200;2024-01-27T05:53:55;211.85;;;201.75;;
11269;SDS011;5692;48.956;9.200;2024-01-27T05:56:21;216.25;;;205.93;;
11269;SDS011;5692;48.956;9.200;2024-01-27T05:58:47;189.50;;;180.43;;
11269;SDS011;5692;48.956;9.200;2024-01-27T06:01:13;217.70;;;207.30;;
11269;SDS011;5692;48.956;9.200;2024-01-27T06:03:42;198.70;;;189.20;;
11269;SDS011;5692;48.956;9.200;2024-01-27T06:06:08;202.93;;;193.23;;
11269;SDS011;5692;48.956;9.200;2024-01-27T06:08:35;196.77;;;187.38;;
11269;SDS011;5692;48.956;9.200;2024-01-27T06:11:01;194.50;;;185.18;;
11269;SDS011;5692;48.956;9.200;2024-01-27T06:13:28;206.45;;;196.57;;
11269;SDS011;5692;48.956;9.200;2024-01-27T06:15:54;207.80;;;197.88;;
11269;SDS011;5692;48.956;9.200;2024-01-27T06:18:20;209.10;;;199.10;;
11269;SDS011;5692;48.956;9.200;2024-01-27T06:20:46;204.70;;;194.90;;
11269;SDS011;5692;48.956;9.200;2024-01-27T06:23:12;203.20;;;193.50;;
11269;SDS011;5692;48.956;9.200;2024-01-27T06:25:38;203.68;;;193.93;;
11269;SDS011;5692;48.956;9.200;2024-01-27T06:28:05;190.57;;;181.45;;
11269;SDS011;5692;48.956;9.200;2024-01-27T06:30:31;207.80;;;197.88;;
11269;SDS011;5692;48.956;9.200;2024-01-27T06:32:57;203.93;;;194.15;;
11269;SDS011;5692;48.956;9.200;2024-01-27T06:35:23;202.13;;;192.45;;
11269;SDS011;5692;48.956;9.200;2024-01-27T06:37:49;217.45;;;207.05;;
11269;SDS011;5692;48.956;9.200;2024-01-27T06:40:15;207.63;;;197.73;;
11269;SDS011;5692;48.956;9.200;2024-01-27T06:42:41;189.90;;;180.80;;
11269;SDS011;5692;48.956;9.200;2024-01-27T06:45:07;209.98;;;199.93;;
11269;SDS011;5692;48.956;9.200;2024-01-27T06:47:34;207.45;;;197.55;;
11269;SDS011;5692;48.956;9.200;2024-01-27T06:50:00;213.82;;;203.60;;
11269;SDS011;5692;48.956;9.200;2024-01-27T06:52:26;213.18;;;202.98;;
11269;SDS011;5692;48.956;9.200;2024-01-27T06:54:51;206.43;;;196.52;;
11269;SDS011;5692;48.956;9.200;2024-01-27T06:57:22;209.98;;;199.93;;
11269;SDS011;5692;48.956;9.200;2024-01-27T06:59:48;208.32;;;198.32;;
11269;SDS011;5692;48.956;9.200;2024-01-27T07:02:17;204.57;;;194.77;;
11269;SDS011;5692;48.956;9.200;2024-01-27T07:04:43;204.27;;;194.48;;
11269;SDS011;5692;48.956;9.200;2024-01-27T07:07:09;207.90;;;197.93;;
11269;SDS011;5692;48.956;9.200;2024-01-27T07:09:38;197.65;;;188.20;;
11269;SDS011;5692;48.956;9.200;2024-01-27T07:12:04;197.85;;;188.35;;
11269;SDS011;5692;48.956;9.200;2024-01-27T07:14:34;210.45;;;200.38;;
11269;SDS011;5692;48.956;9.200;2024-01-27T07:17:01;214.75;;;204.45;;
11269;SDS011;5692;48.956;9.200;2024-01-27T07:19:27;196.48;;;187.07;;
11269;SDS011;5692;48.956;9.200;2024-01-27T07:21:53;196.13;;;186.73;;
11269;SDS011;5692;48.956;9.200;2024-01-27T07:24:19;197.20;;;187.75;;
11269;SDS011;5692;48.956;9.200;2024-01-27T07:26:45;203.27;;;193.57;;
11269;SDS011;5692;48.956;9.200;2024-01-27T07:29:11;192.63;;;183.40;;
11269;SDS011;5692;48.956;9.200;2024-01-27T07:31:37;206.10;;;196.23;;
11269;SDS011;5692;48.956;9.200;2024-01-27T07:34:03;196.60;;;187.20;;
11269;SDS011;5692;48.956;9.200;2024-01-27T07:36:31;201.77;;;192.10;;
11269;SDS011;5692;48.956;9.200;2024-01-27T07:38:59;192.07;;;182.88;;
11269;SDS011;5692;48.956;9.200;2024-01-27T07:41:28;185.82;;;176.93;;
11269;SDS011;5692;48.956;9.200;2024-01-27T07:43:54;193.82;;;184.52;;
11269;SDS011;5692;48.956;9.200;2024-01-27T07:46:20;192.57;;;183.35;;
11269;SDS011;5692;48.956;9.200;2024-01-27T07:48:48;189.65;;;180.55;;
11269;SDS011;5692;48.956;9.200;2024-01-27T07:51:15;187.85;;;178.85;;
11269;SDS011;5692;48.956;9.200;2024-01-27T07:53:50;183.07;;;174.27;;
11269;SDS011;5692;48.956;9.200;2024-01-27T07:56:16;197.57;;;188.10;;
11269;SDS011;5692;48.956;9.200;2024-01-27T07:58:42;203.48;;;193.77;;
11269;SDS011;5692;48.956;9.200;2024-01-27T08:01:08;213.57;;;203.35;;
11269;SDS011;5692;48.956;9.200;2024-01-27T08:03:36;199.10;;;189.60;;
11269;SDS011;5692;48.956;9.200;2024-01-27T08:06:10;196.70;;;187.30;;
11269;SDS011;5692;48.956;9.200;2024-01-27T08:08:36;196.25;;;186.85;;
11269;SDS011;5692;48.956;9.200;2024-01-27T08:11:07;184.65;;;175.82;;
11269;SDS011;5692;48.956;9.200;2024-01-27T08:13:35;182.68;;;173.93;;
11269;SDS011;5692;48.956;9.200;2024-01-27T08:16:01;198.10;;;188.60;;
11269;SDS011;5692;48.956;9.200;2024-01-27T08:18:28;206.10;;;196.25;;
11269;SDS011;5692;48.956;9.200;2024-01-27T08:20:54;192.10;;;182.90;;
11269;SDS011;5692;48.956;9.200;2024-01-27T08:23:23;197.23;;;187.80;;
11269;SDS011;5692;48.956;9.200;2024-01-27T08:25:54;206.60;;;196.70;;
11269;SDS011;5692;48.956;9.200;2024-01-27T08:28:20;194.95;;;185.63;;
11269;SDS011;5692;48.956;9.200;2024-01-27T08:30:56;203.88;;;194.07;;
11269;SDS011;5692;48.956;9.200;2024-01-27T08:33:24;211.55;;;201.45;;
11269;SDS011;5692;48.956;9.200;2024-01-27T08:36:05;202.23;;;192.55;;
11269;SDS011;5692;48.956;9.200;2024-01-27T08:38:33;208.48;;;198.48;;
11269;SDS011;5692;48.956;9.200;2024-01-27T08:41:02;203.10;;;193.40;;
11269;SDS011;5692;48.956;9.200;2024-01-27T08:43:28;204.60;;;194.80;;
11269;SDS011;5692;48.956;9.200;2024-01-27T08:46:09;223.98;;;213.27;;
11269;SDS011;5692;48.956;9.200;2024-01-27T08:48:37;213.45;;;203.25;;
11269;SDS011;5692;48.956;9.200;2024-01-27T08:51:12;212.75;;;202.55;;
11269;SDS011;5692;48.956;9.200;2024-01-27T08:53:42;209.00;;;199.00;;
11269;SDS011;5692;48.956;9.200;2024-01-27T08:56:13;210.88;;;200.77;;
11269;SDS011;5692;48.956;9.200;2024-01-27T08:58:39;216.25;;;205.90;;
11269;SDS011;5692;48.956;9.200;2024-01-27T09:01:08;220.35;;;209.80;;
11269;SDS011;5692;48.956;9.200;2024-01-27T09:03:34;229.60;;;218.60;;
11269;SDS011;5692;48.956;9.200;2024-01-27T09:06:03;229.07;;;218.10;;
11269;SDS011;5692;48.956;9.200;2024-01-27T09:08:38;225.80;;;215.00;;
11269;SDS011;5692;48.956;9.200;2024-01-27T09:11:04;230.35;;;219.35;;
11269;SDS011;5692;48.956;9.200;2024-01-27T09:13:32;238.57;;;227.18;;
11269;SDS011;5692;48.956;9.200;2024-01-27T09:15:58;246.45;;;234.65;;
11269;SDS011;5692;48.956;9.200;2024-01-27T09:18:24;239.10;;;227.65;;
11269;SDS011;5692;48.956;9.200;2024-01-27T09:20:50;232.60;;;221.48;;
11269;SDS011;5692;48.956;9.200;2024-01-27T09:23:18;224.65;;;213.90;;
11269;SDS011;5692;48.956;9.200;2024-01-27T09:25:44;226.73;;;215.90;;
11269;SDS011;5692;48.956;9.200;2024-01-27T09:28:10;227.30;;;216.40;;
11269;SDS011;5692;48.956;9.200;2024-01-27T09:30:37;228.00;;;217.10;;
11269;SDS011;5692;48.956;9.200;2024-01-27T09:33:03;215.02;;;204.73;;
11269;SDS011;5692;48.956;9.200;2024-01-27T09:35:32;233.65;;;222.48;;
11269;SDS011;5692;48.956;9.200;2024-01-27T09:38:00;254.23;;;242.07;;
11269;SDS011;5692;48.956;9.200;2024-01-27T09:40:26;225.15;;;214.40;;
11269;SDS011;5692;48.956;9.200;2024-01-27T09:42:55;235.88;;;224.57;;
11269;SDS011;5692;48.956;9.200;2024-01-27T09:45:29;232.63;;;221.50;;
11269;SDS011;5692;48.956;9.200;2024-01-27T09:47:57;227.40;;;216.55;;
11269;SDS011;5692;48.956;9.200;2024-01-27T09:50:35;229.75;;;218.75;;
11269;SDS011;5692;48.956;9.200;2024-01-27T09:53:02;240.57;;;229.10;;
11269;SDS011;5692;48.956;9.200;2024-01-27T09:55:33;230.73;;;219.68;;
11269;SDS011;5692;48.956;9.200;2024-01-27T09:58:08;240.27;;;228.77;;
11269;SDS011;5692;48.956;9.200;2024-01-27T10:00:55;235.68;;;224.38;;
11269;SDS011;5692;48.956;9.200;2024-01-27T10:03:28;239.35;;;227.90;;
11269;SDS011;5692;48.956;9.200;2024-01-27T10:06:12;237.95;;;226.57;;
11269;SDS011;5692;48.956;9.200;2024-01-27T10:08:43;253.25;;;241.15;;
11269;SDS011;5692;48.956;9.200;2024-01-27T10:11:13;252.25;;;240.18;;
11269;SDS011;5692;48.956;9.200;2024-01-27T10:13:46;253.15;;;241.05;;
11269;SDS011;5692;48.956;9.200;2024-01-27T10:16:21;270.52;;;257.63;;
11269;SDS011;5692;48.956;9.200;2024-01-27T10:21:39;252.02;;;239.98;;
11269;SDS011;5692;48.956;9.200;2024-01-27T10:24:13;240.48;;;228.98;;
11269;SDS011;5692;48.956;9.200;2024-01-27T10:26:41;240.23;;;228.73;;
11269;SDS011;5692;48.956;9.200;2024-01-27T10:29:10;224.48;;;213.75;;
11269;SDS011;5692;48.956;9.200;2024-01-27T10:31:47;235.02;;;223.77;;
11269;SDS011;5692;48.956;9.200;2024-01-27T10:34:13;239.88;;;228.40;;
11269;SDS011;5692;48.956;9.200;2024-01-27T10:36:48;248.77;;;236.90;;
11269;SDS011;5692;48.956;9.200;2024-01-27T10:39:22;236.52;;;225.23;;
11269;SDS011;5692;48.956;9.200;2024-01-27T10:41:49;230.95;;;219.90;;
11269;SDS011;5692;48.956;9.200;2024-01-27T10:44:16;231.23;;;220.15;;
11269;SDS011;5692;48.956;9.200;2024-01-27T10:46:45;248.05;;;236.20;;
11269;SDS011;5692;48.956;9.200;2024-01-27T10:49:12;255.32;;;243.13;;
11269;SDS011;5692;48.956;9.200;2024-01-27T10:51:42;260.05;;;247.65;;
11269;SDS011;5692;48.956;9.200;2024-01-27T10:54:27;251.65;;;239.63;;
11269;SDS011;5692;48.956;9.200;2024-01-27T10:57:01;247.90;;;236.05;;
11269;SDS011;5692;48.956;9.200;2024-01-27T10:59:30;248.27;;;236.40;;
11269;SDS011;5692;48.956;9.200;2024-01-27T11:01:56;244.50;;;232.80;;
11269;SDS011;5692;48.956;9.200;2024-01-27T11:04:22;247.38;;;235.57;;
11269;SDS011;5692;48.956;9.200;2024-01-27T11:07:00;256.80;;;244.52;;
11269;SDS011;5692;48.956;9.200;2024-01-27T11:09:37;253.65;;;241.55;;
11269;SDS011;5692;48.956;9.200;2024-01-27T11:12:06;234.38;;;223.15;;
11269;SDS011;5692;48.956;9.200;2024-01-27T11:14:34;239.38;;;227.93;;
11269;SDS011;5692;48.956;9.200;2024-01-27T11:17:00;239.73;;;228.27;;
11269;SDS011;5692;48.956;9.200;2024-01-27T11:19:29;245.30;;;233.57;;
11269;SDS011;5692;48.956;9.200;2024-01-27T11:22:23;237.15;;;225.80;;
11269;SDS011;5692;48.956;9.200;2024-01-27T11:24:47;225.65;;;214.85;;
11269;SDS011;5692;48.956;9.200;2024-01-27T11:27:26;240.43;;;228.93;;
11269;SDS011;5692;48.956;9.200;2024-01-27T11:29:55;251.65;;;239.60;;
11269;SDS011;5692;48.956;9.200;2024-01-27T11:32:21;253.73;;;241.60;;
11269;SDS011;5692;48.956;9.200;2024-01-27T11:34:50;248.68;;;236.77;;
11269;SDS011;5692;48.956;9.200;2024-01-27T11:37:16;242.00;;;230.43;;
11269;SDS011;5692;48.956;9.200;2024-01-27T11:39:51;252.75;;;240.65;;
11269;SDS011;5692;48.956;9.200;2024-01-27T11:42:19;247.77;;;235.93;;
11269;SDS011;5692;48.956;9.200;2024-01-27T11:44:47;242.40;;;230.80;;
11269;SDS011;5692;48.956;9.200;2024-01-27T11:47:14;245.95;;;234.20;;
11269;SDS011;5692;48.956;9.200;2024-01-27T11:49:41;253.45;;;241.35;;
11269;SDS011;5692;48.956;9.200;2024-01-27T11:52:10;240.43;;;228.95;;
11269;SDS011;5692;48.956;9.200;2024-01-27T11:54:36;256.50;;;244.20;;
11269;SDS011;5692;48.956;9.200;2024-01-27T12:02:38;262.38;;;249.85;;
11269;SDS011;5692;48.956;9.200;2024-01-27T12:05:10;252.73;;;240.63;;
11269;SDS011;5692;48.956;9.200;2024-01-27T12:07:42;256.65;;;244.38;;
11269;SDS011;5692;48.956;9.200;2024-01-27T12:10:11;256.27;;;244.00;;
11269;SDS011;5692;48.956;9.200;2024-01-27T12:12:40;264.95;;;252.27;;
11269;SDS011;5692;48.956;9.200;2024-01-27T12:15:09;261.38;;;248.88;;
11269;SDS011;5692;48.956;9.200;2024-01-27T12:17:35;273.08;;;260.02;;
11269;SDS011;5692;48.956;9.200;2024-01-27T12:20:04;270.73;;;257.77;;
11269;SDS011;5692;48.956;9.200;2024-01-27T12:22:43;268.27;;;255.48;;
11269;SDS011;5692;48.956;9.200;2024-01-27T12:25:29;255.25;;;243.05;;
11269;SDS011;5692;48.956;9.200;2024-01-27T12:28:05;261.90;;;249.40;;
11269;SDS011;5692;48.956;9.200;2024-01-27T12:30:35;271.27;;;258.33;;
11269;SDS011;5692;48.956;9.200;2024-01-27T12:33:12;265.35;;;252.65;;
11269;SDS011;5692;48.956;9.200;2024-01-27T12:35:49;267.25;;;254.45;;
11269;SDS011;5692;48.956;9.200;2024-01-27T12:38:19;278.95;;;265.60;;
11269;SDS011;5692;48.956;9.200;2024-01-27T12:40:47;273.48;;;260.38;;
11269;SDS011;5692;48.956;9.200;2024-01-27T12:43:16;274.60;;;261.50;;
11269;SDS011;5692;48.956;9.200;2024-01-27T12:45:42;276.73;;;263.50;;
11269;SDS011;5692;48.956;9.200;2024-01-27T12:48:10;285.05;;;271.42;;
11269;SDS011;5692;48.956;9.200;2024-01-27T12:50:36;283.55;;;270.00;;
11269;SDS011;5692;48.956;9.200;2024-01-27T12:53:03;287.63;;;273.90;;
11269;SDS011;5692;48.956;9.200;2024-01-27T12:55:33;281.10;;;267.67;;
11269;SDS011;5692;48.956;9.200;2024-01-27T12:57:59;273.95;;;260.85;;
11269;SDS011;5692;48.956;9.200;2024-01-27T13:00:35;274.55;;;261.45;;
11269;SDS011;5692;48.956;9.200;2024-01-27T13:03:04;264.08;;;251.45;;
11269;SDS011;5692;48.956;9.200;2024-01-27T13:05:30;265.85;;;253.15;;
11269;SDS011;5692;48.956;9.200;2024-01-27T13:07:58;261.88;;;249.35;;
11269;SDS011;5692;48.956;9.200;2024-01-27T13:10:42;259.90;;;247.50;;
11269;SDS011;5692;48.956;9.200;2024-01-27T13:13:16;283.88;;;270.30;;
11269;SDS011;5692;48.956;9.200;2024-01-27T13:15:42;279.35;;;266.00;;
11269;SDS011;5692;48.956;9.200;2024-01-27T13:18:11;268.67;;;255.82;;
11269;SDS011;5692;48.956;9.200;2024-01-27T13:20:37;264.92;;;252.23;;
11269;SDS011;5692;48.956;9.200;2024-01-27T13:23:13;267.30;;;254.52;;
11269;SDS011;5692;48.956;9.200;2024-01-27T13:25:39;271.38;;;258.38;;
11269;SDS011;5692;48.956;9.200;2024-01-27T13:28:08;266.05;;;253.32;;
11269;SDS011;5692;48.956;9.200;2024-01-27T13:30:37;261.60;;;249.10;;
11269;SDS011;5692;48.956;9.200;2024-01-27T13:33:07;273.70;;;260.60;;
11269;SDS011;5692;48.956;9.200;2024-01-27T13:35:39;269.88;;;256.98;;
11269;SDS011;5692;48.956;9.200;2024-01-27T13:38:12;267.52;;;254.73;;
11269;SDS011;5692;48.956;9.200;2024-01-27T13:40:48;262.98;;;250.40;;
11269;SDS011;5692;48.956;9.200;2024-01-27T13:43:14;257.90;;;245.60;;
11269;SDS011;5692;48.956;9.200;2024-01-27T13:45:40;273.05;;;259.98;;
11269;SDS011;5692;48.956;9.200;2024-01-27T13:48:07;273.65;;;260.60;;
11269;SDS011;5692;48.956;9.200;2024-01-27T13:50:35;262.30;;;249.80;;
11269;SDS011;5692;48.956;9.200;2024-01-27T13:53:01;273.67;;;260.58;;
11269;SDS011;5692;48.956;9.200;2024-01-27T13:55:30;270.27;;;257.38;;
11269;SDS011;5692;48.956;9.200;2024-01-27T13:57:56;275.33;;;262.17;;
11269;SDS011;5692;48.956;9.200;2024-01-27T14:00:25;274.15;;;261.05;;
11269;SDS011;5692;48.956;9.200;2024-01-27T14:02:57;280.30;;;266.92;;
11269;SDS011;5692;48.956;9.200;2024-01-27T14:05:39;268.08;;;255.27;;
11269;SDS011;5692;48.956;9.200;2024-01-27T14:08:16;255.05;;;242.88;;
11269;SDS011;5692;48.956;9.200;2024-01-27T14:10:44;262.65;;;250.07;;
11269;SDS011;5692;48.956;9.200;2024-01-27T14:13:13;272.95;;;259.90;;
11269;SDS011;5692;48.956;9.200;2024-01-27T14:15:42;287.05;;;273.35;;
11269;SDS011;5692;48.956;9.200;2024-01-27T14:18:11;284.45;;;270.85;;
11269;SDS011;5692;48.956;9.200;2024-01-27T14:20:45;279.33;;;265.98;;
11269;SDS011;5692;48.956;9.200;2024-01-27T14:23:11;278.60;;;265.30;;